KFTW

Fort Worth Meacham International Airport

Fort Worth, Texas, USA
METAR KFTW 180253Z 12008KT 7SM OVC008 09/08 A3010 RMK AO2 SLP193 T00940083 51020 $
Observed Flight Rules
Dec-18 @ 02:53 UTC (28 minutes ago) Instrument Flight Rules
Wind Visibility Clouds
120° at 8 knots 7 miles
  • Overcast at 800' AGL
Temperatures Readings
Current 9°C / 48°F
Dewpoint 8°C / 46°F
Humidity 94%
Altimeter 30.1" Hg
Pressure 1019.3 hPa
Elevation 214
METAR KFTW 180253Z 12008KT 7SM OVC008 09/08 A3010 RMK AO2 SLP193 T00940083 51020 $
Observed Flight Rules
Dec-18 @ 02:53 UTC
(28 minutes ago)
IFR
Wind Visibility
120° at 8 knots 7 miles
Clouds
  • Overcast at 800' AGL
Temperature Dewpoint
9°C / 48°F 8°C / 46°F
Humidity Altimeter Pressure
94% 30.1" Hg 1019.3 hPa